WetterOnline ( https://www.wetteronline.de )

Wetter aktuell Luleå

Aktuelles Wetter: Lulea (17m)

6-stündlich | Neueste Meldungen
Ortszeit Temperatur Wetter
Fr, 03.02. 19:00 -16.7° C wolkenlos
Fr, 03.02. 13:00 -13.8° C wolkenlos
Fr, 03.02. 7:00 -16.1° C fast wolkenlos
Fr, 03.02. 1:00 -14.2° C wolkenlos
Do, 02.02. 19:00 -10.3° C wolkenlos
Do, 02.02. 13:00 -6.6° C wolkig
Do, 02.02. 7:00 -6.9° C bewölkt
Do, 02.02. 1:00 -5.6° C wolkenlos
Ortszeit Temperatur Wetter
Sa, 04.02. 0:00 -16.8° C wolkenlos
Fr, 03.02. 23:00 -17.0° C wolkenlos
Fr, 03.02. 22:00 -16.5° C wolkenlos
Fr, 03.02. 21:00 -17.3° C wolkenlos
Fr, 03.02. 20:00 -17.0° C wolkenlos
Fr, 03.02. 19:00 -16.7° C wolkenlos
Ortszeit Relative Feuchte Sichtweite
Fr, 03.02. 19:00 87% 50 km
Fr, 03.02. 13:00 85% 45 km
Fr, 03.02. 7:00 87% >70 km
Fr, 03.02. 1:00 90% 45 km
Do, 02.02. 19:00 92% 45 km
Do, 02.02. 13:00 90% 65 km
Do, 02.02. 7:00 88% 60 km
Do, 02.02. 1:00 88% 50 km
Ortszeit Relative Feuchte Sichtweite
Sa, 04.02. 0:00 85% 50 km
Fr, 03.02. 23:00 85% 45 km
Fr, 03.02. 22:00 84% 50 km
Fr, 03.02. 21:00 85% 50 km
Fr, 03.02. 20:00 85% 50 km
Fr, 03.02. 19:00 87% 50 km
Ortszeit Niederschlagsmenge Niederschlagsart
Fr, 03.02. 19:00 0.0 l/m2 in 12 Std. -
Fr, 03.02. 13:00 0.0 l/m2 in 6 Std. -
Fr, 03.02. 7:00 0.0 l/m2 in 12 Std. -
Fr, 03.02. 1:00 0.0 l/m2 in 6 Std. -
Do, 02.02. 19:00 0.0 l/m2 in 12 Std. -
Do, 02.02. 13:00 0.0 l/m2 in 6 Std. -
Do, 02.02. 7:00 0.1 l/m2 in 12 Std. -
Do, 02.02. 1:00 0.1 l/m2 in 6 Std. Schnee, Sprühregen
Ortszeit Niederschlagsmenge Niederschlagsart
Sa, 04.02. 0:00 0.0 l/m2 in 1 Std. -
Fr, 03.02. 23:00 0.0 l/m2 in 1 Std. -
Fr, 03.02. 22:00 0.0 l/m2 in 1 Std. -
Fr, 03.02. 21:00 0.0 l/m2 in 1 Std. -
Fr, 03.02. 20:00 0.0 l/m2 in 1 Std. -
Fr, 03.02. 19:00 0.0 l/m2 in 1 Std. -
Ortszeit Stärke Spitze Richtung
km/h Bft. km/h Grad Sektor
Fr, 03.02. 19:00 11 2 - 350° N
Fr, 03.02. 13:00 18 3 - 350° N
Fr, 03.02. 7:00 14 3 - 340° N
Fr, 03.02. 1:00 11 2 - 340° N
Do, 02.02. 19:00 11 2 - 330° NW
Do, 02.02. 13:00 18 3 - 340° N
Do, 02.02. 7:00 22 4 32 330° NW
Do, 02.02. 1:00 22 4 - 330° NW
Ortszeit Stärke Spitze Richtung
km/h Bft. km/h Grad Sektor
Sa, 04.02. 0:00 14 3 22 350° N
Fr, 03.02. 23:00 11 2 25 350° N
Fr, 03.02. 22:00 14 3 18 330° NW
Fr, 03.02. 21:00 14 3 22 350° N
Fr, 03.02. 20:00 11 2 18 320° NW
Fr, 03.02. 19:00 11 2 18 350° N
Ortszeit Untergrenze Bedeckung Gattung
total tief tief mittel hoch
Fr, 03.02. 19:00 - 0/8 0/8 - - -
Fr, 03.02. 13:00 - 0/8 0/8 - - -
Fr, 03.02. 7:00 3300 m 2/8 2/8 - As -
Fr, 03.02. 1:00 - 0/8 0/8 - - -
Do, 02.02. 19:00 - 0/8 0/8 - - -
Do, 02.02. 13:00 3000 m 7/8 5/8 - As Ci
Do, 02.02. 7:00 1260 m 7/8 6/8 Sc - -
Do, 02.02. 1:00 - 0/8 0/8 - - -
Ortszeit Bedeckungsgrad in Achtel und Wolkenuntergrenze
Sa, 04.02. 0:00 keine Wolken
Fr, 03.02. 23:00 keine Wolken
Fr, 03.02. 22:00 keine Wolken
Fr, 03.02. 21:00 keine Wolken
Fr, 03.02. 20:00 keine Wolken
Fr, 03.02. 19:00 keine Wolken
Ortszeit Luftdruck NN (hPa) Tendenz (hPa in 3 Std.)
Fr, 03.02. 19:00 1025 + 3,3
Fr, 03.02. 13:00 1019 + 2,0
Fr, 03.02. 7:00 1015 + 0,8
Fr, 03.02. 1:00 1014 + 0,3
Do, 02.02. 19:00 1013 + 1,6
Do, 02.02. 13:00 1009 + 2,0
Do, 02.02. 7:00 1005 + 1,9
Do, 02.02. 1:00 1001 + 1,9
Ortszeit Luftdruck NN (hPa) Tendenz (hPa in 3 Std.)
Sa, 04.02. 0:00 1029 + 2,3
Fr, 03.02. 23:00 1028 + 2,3
Fr, 03.02. 22:00 1027 + 2,0
Fr, 03.02. 21:00 1026 + 2,4
Fr, 03.02. 20:00 1026 + 3,2
Fr, 03.02. 19:00 1025 + 3,3
Ortszeit Schneehöhe (cm)
Fr, 03.02. 19:00 -
Fr, 03.02. 13:00 -
Fr, 03.02. 7:00 46
Fr, 03.02. 1:00 -
Do, 02.02. 19:00 -
Do, 02.02. 13:00 -
Do, 02.02. 7:00 46
Do, 02.02. 1:00 -
Ortszeit Schneehöhe (cm)
Sa, 04.02. 0:00 -
Fr, 03.02. 23:00 -
Fr, 03.02. 22:00 -
Fr, 03.02. 21:00 -
Fr, 03.02. 20:00 -
Fr, 03.02. 19:00 -
Link zu dieser Seite / Seite empfehlen

Das Wetter in ...